createdAt,value
2023-03-26T00:00:43.691Z,9.17
2023-03-26T00:03:14.915Z,9.08
2023-03-26T00:05:41.398Z,9.09
2023-03-26T00:08:08.924Z,9.08
2023-03-26T00:10:37.567Z,9.10
2023-03-26T00:13:05.682Z,9.07
2023-03-26T00:15:33.756Z,9.13
2023-03-26T00:18:03.329Z,9.27
2023-03-26T00:20:32.749Z,9.28
2023-03-26T00:23:02.596Z,9.29
2023-03-26T00:25:29.065Z,9.10
2023-03-26T00:27:55.598Z,9.18
2023-03-26T00:30:22.256Z,9.05
2023-03-26T00:32:53.681Z,9.04
2023-03-26T00:35:22.422Z,8.92
2023-03-26T00:37:51.415Z,9.00
2023-03-26T00:40:17.881Z,8.97
2023-03-26T00:42:44.249Z,8.95
2023-03-26T00:45:11.193Z,8.95
2023-03-26T00:47:39.992Z,8.73
2023-03-26T00:50:07.651Z,8.89
2023-03-26T00:52:36.124Z,8.88
2023-03-26T00:55:03.020Z,8.95
2023-03-26T00:59:59.409Z,8.80
2023-03-26T01:02:27.333Z,8.78
2023-03-26T01:05:02.894Z,8.79
2023-03-26T01:07:29.761Z,8.88
2023-03-26T01:09:59.257Z,8.87
2023-03-26T01:12:29.232Z,8.99
2023-03-26T01:15:00.758Z,9.02
2023-03-26T01:17:34.150Z,8.94
2023-03-26T01:20:13.484Z,8.91
2023-03-26T01:22:45.821Z,9.03
2023-03-26T01:25:12.485Z,8.98
2023-03-26T01:27:47.749Z,8.98
2023-03-26T01:30:33.553Z,9.19
2023-03-26T01:33:03.476Z,9.20
2023-03-26T01:35:44.354Z,9.12
2023-03-26T01:38:29.716Z,9.16
2023-03-26T01:41:11.778Z,9.18
2023-03-26T01:43:51.243Z,9.24
2023-03-26T01:46:19.394Z,9.18
2023-03-26T01:48:47.138Z,9.19
2023-03-26T01:51:25.396Z,9.02
2023-03-26T01:53:52.723Z,9.05
2023-03-26T01:56:29.541Z,9.08
2023-03-26T01:59:33.514Z,9.06
2023-03-26T02:02:15.796Z,8.92
2023-03-26T02:05:04.653Z,8.79
2023-03-26T02:07:41.105Z,8.89
2023-03-26T02:10:13.881Z,8.71
2023-03-26T02:12:42.749Z,8.70
2023-03-26T02:15:11.130Z,8.85
2023-03-26T02:17:40.381Z,8.89
2023-03-26T02:20:10.484Z,8.72
2023-03-26T02:22:41.630Z,8.52
2023-03-26T02:25:09.766Z,8.69
2023-03-26T02:27:37.092Z,8.71
2023-03-26T02:30:06.618Z,8.71
2023-03-26T02:32:33.151Z,8.47
2023-03-26T02:34:59.846Z,8.59
2023-03-26T02:37:26.276Z,8.77
2023-03-26T02:39:52.796Z,8.43
2023-03-26T02:42:19.289Z,8.59
2023-03-26T02:44:46.064Z,8.46
2023-03-26T02:47:12.398Z,8.58
2023-03-26T02:49:38.786Z,8.43
2023-03-26T02:52:06.670Z,8.52
2023-03-26T02:54:34.999Z,8.55
2023-03-26T02:57:01.617Z,8.42
2023-03-26T02:59:28.075Z,8.48
2023-03-26T03:01:54.633Z,8.47
2023-03-26T03:04:21.837Z,8.34
2023-03-26T03:06:52.883Z,8.34
2023-03-26T03:09:20.024Z,8.23
2023-03-26T03:11:46.468Z,8.21
2023-03-26T03:14:12.898Z,8.26
2023-03-26T03:16:39.385Z,8.27
2023-03-26T03:19:06.113Z,8.20
2023-03-26T03:21:32.576Z,8.25
2023-03-26T03:23:59.776Z,8.19
2023-03-26T03:26:27.751Z,8.24
2023-03-26T03:28:56.536Z,8.01
2023-03-26T03:31:27.402Z,8.32
2023-03-26T03:33:53.950Z,8.37
2023-03-26T03:36:23.246Z,8.22
2023-03-26T03:38:50.777Z,8.27
2023-03-26T03:41:18.512Z,8.07
2023-03-26T03:43:45.651Z,8.19
2023-03-26T03:46:12.193Z,8.29
2023-03-26T03:48:39.112Z,8.35
2023-03-26T03:51:06.284Z,8.46
2023-03-26T03:53:36.908Z,8.41
2023-03-26T03:56:04.349Z,8.31
2023-03-26T03:58:31.092Z,8.33
2023-03-26T04:01:00.884Z,8.27
2023-03-26T04:03:33.153Z,8.39
2023-03-26T04:06:00.649Z,8.25
2023-03-26T04:08:27.099Z,8.37
2023-03-26T04:10:53.571Z,8.50
2023-03-26T04:13:20.083Z,8.40
2023-03-26T04:15:47.047Z,8.34
2023-03-26T04:18:13.552Z,8.50
2023-03-26T04:20:46.312Z,8.50
2023-03-26T04:23:14.296Z,8.55
2023-03-26T04:25:48.481Z,8.46
2023-03-26T04:28:28.744Z,8.29
2023-03-26T04:30:57.117Z,7.95
2023-03-26T04:33:25.016Z,8.26
2023-03-26T04:35:51.717Z,8.10
2023-03-26T04:38:18.587Z,8.25
2023-03-26T04:40:47.445Z,8.19
2023-03-26T04:43:18.884Z,7.93
2023-03-26T04:45:48.167Z,7.82
2023-03-26T04:48:14.683Z,7.89
2023-03-26T04:50:45.417Z,7.95
2023-03-26T04:53:15.184Z,7.79
2023-03-26T04:55:46.959Z,7.68
2023-03-26T04:58:14.016Z,7.76
2023-03-26T05:00:41.958Z,7.91
2023-03-26T05:03:12.131Z,7.89
2023-03-26T05:05:39.328Z,7.67
2023-03-26T05:08:06.075Z,7.75
2023-03-26T05:10:32.606Z,7.85
2023-03-26T05:12:59.113Z,7.73
2023-03-26T05:15:25.674Z,7.64
2023-03-26T05:17:52.168Z,7.58
2023-03-26T05:20:23.023Z,7.42
2023-03-26T05:22:50.059Z,7.50
2023-03-26T05:25:17.734Z,7.49
2023-03-26T05:27:44.955Z,7.20
2023-03-26T05:30:15.829Z,7.23
2023-03-26T05:32:42.855Z,7.09
2023-03-26T05:35:09.805Z,7.03
2023-03-26T05:37:38.680Z,7.02
2023-03-26T05:40:11.660Z,7.17
2023-03-26T05:42:39.238Z,7.19
2023-03-26T05:45:08.460Z,7.13
2023-03-26T05:47:35.290Z,7.11
2023-03-26T05:50:01.781Z,7.11
2023-03-26T05:52:28.525Z,7.11
2023-03-26T05:54:54.960Z,7.23
2023-03-26T05:57:22.358Z,7.19
2023-03-26T05:59:48.719Z,7.62
2023-03-26T06:02:15.610Z,7.66
2023-03-26T06:04:42.746Z,7.66
2023-03-26T06:07:12.345Z,7.85
2023-03-26T06:09:40.048Z,7.92
2023-03-26T06:12:08.034Z,7.92
2023-03-26T06:14:34.645Z,7.98
2023-03-26T06:17:01.132Z,7.97
2023-03-26T06:19:27.661Z,8.11
2023-03-26T06:21:54.107Z,7.84
2023-03-26T06:24:20.809Z,8.09
2023-03-26T06:26:47.810Z,8.14
2023-03-26T06:29:15.359Z,8.35
2023-03-26T06:31:41.891Z,8.31
2023-03-26T06:34:08.341Z,8.17
2023-03-26T06:36:34.785Z,8.28
2023-03-26T06:39:01.202Z,8.48
2023-03-26T06:41:35.186Z,8.35
2023-03-26T06:44:01.561Z,8.14
2023-03-26T06:46:28.144Z,8.41
2023-03-26T06:48:54.588Z,8.34
2023-03-26T06:51:21.080Z,8.65
2023-03-26T06:53:47.507Z,8.76
2023-03-26T06:56:13.939Z,8.73
2023-03-26T06:58:40.664Z,8.76
2023-03-26T07:01:07.515Z,8.90
2023-03-26T07:03:34.088Z,8.64
2023-03-26T07:06:00.730Z,8.62
2023-03-26T07:08:27.201Z,8.97
2023-03-26T07:10:53.749Z,8.89
2023-03-26T07:13:20.403Z,8.92
2023-03-26T07:15:49.072Z,8.74
2023-03-26T07:18:15.622Z,8.83
2023-03-26T07:20:44.678Z,9.16
2023-03-26T07:23:12.086Z,8.95
2023-03-26T07:25:39.546Z,9.10
2023-03-26T07:28:31.875Z,9.29
2023-03-26T07:31:25.055Z,9.36
2023-03-26T07:34:08.902Z,9.29
2023-03-26T07:36:51.114Z,9.36
2023-03-26T07:39:32.594Z,8.82
2023-03-26T07:42:09.742Z,9.03
2023-03-26T07:44:42.309Z,8.99
2023-03-26T07:47:25.473Z,9.22
2023-03-26T07:49:54.734Z,9.42
2023-03-26T07:52:21.926Z,9.36
2023-03-26T07:54:48.719Z,9.70
2023-03-26T07:57:32.044Z,9.64
2023-03-26T08:00:12.029Z,9.18
2023-03-26T08:02:56.760Z,9.47
2023-03-26T08:05:36.137Z,9.33
2023-03-26T08:08:38.142Z,9.57
2023-03-26T08:11:28.365Z,9.32
2023-03-26T08:14:26.170Z,9.54
2023-03-26T08:17:30.954Z,9.53
2023-03-26T08:20:47.884Z,9.91
2023-03-26T08:23:24.680Z,9.79
2023-03-26T08:26:02.498Z,9.72
2023-03-26T08:28:41.826Z,9.99
2023-03-26T08:31:11.136Z,10.00
2023-03-26T08:33:40.619Z,10.10
2023-03-26T08:36:08.808Z,9.77
2023-03-26T08:38:35.491Z,10.20
2023-03-26T08:41:01.851Z,10.18
2023-03-26T08:43:34.842Z,10.62
2023-03-26T08:46:40.057Z,10.16
2023-03-26T08:49:44.570Z,10.31
2023-03-26T08:52:34.922Z,10.08
2023-03-26T08:55:19.291Z,10.14
2023-03-26T08:58:10.324Z,10.12
2023-03-26T09:00:48.621Z,10.49
2023-03-26T09:03:28.264Z,10.20
2023-03-26T09:06:32.957Z,10.50
2023-03-26T09:09:27.332Z,10.20
2023-03-26T09:12:31.371Z,10.62
2023-03-26T09:15:27.479Z,10.31
2023-03-26T09:18:02.876Z,10.38
2023-03-26T09:21:00.758Z,10.22
2023-03-26T09:24:03.113Z,10.50
2023-03-26T09:26:51.418Z,10.65
2023-03-26T09:29:36.032Z,10.49
2023-03-26T09:32:05.497Z,10.51
2023-03-26T09:34:34.572Z,10.23
2023-03-26T09:37:23.660Z,10.80
2023-03-26T09:40:12.721Z,10.43
2023-03-26T09:42:53.523Z,10.46
2023-03-26T09:45:49.423Z,11.18
2023-03-26T09:49:03.102Z,10.67
2023-03-26T09:51:29.872Z,10.68
2023-03-26T09:54:27.067Z,11.64
2023-03-26T09:57:13.955Z,11.53
2023-03-26T10:00:15.755Z,10.54
2023-03-26T10:03:09.669Z,11.21
2023-03-26T10:06:04.382Z,11.15
2023-03-26T10:08:42.063Z,10.88
2023-03-26T10:11:22.295Z,11.10
2023-03-26T10:14:26.450Z,10.80
2023-03-26T10:16:56.354Z,11.02
2023-03-26T10:19:43.107Z,10.65
2023-03-26T10:22:12.240Z,10.39
2023-03-26T10:25:16.530Z,10.28
2023-03-26T10:27:58.015Z,10.44
2023-03-26T10:30:57.289Z,10.51
2023-03-26T10:33:39.081Z,10.81
2023-03-26T10:36:33.079Z,10.66
2023-03-26T10:38:59.460Z,10.40
2023-03-26T10:41:35.176Z,10.77
2023-03-26T10:44:21.813Z,10.79
2023-03-26T10:47:10.531Z,10.96
2023-03-26T10:50:08.770Z,10.80
2023-03-26T10:52:44.105Z,10.97
2023-03-26T10:55:18.543Z,10.98
2023-03-26T10:57:56.017Z,10.83
2023-03-26T11:00:28.939Z,10.92
2023-03-26T11:03:24.141Z,11.15
2023-03-26T11:06:25.529Z,11.24
2023-03-26T11:09:03.845Z,10.50
2023-03-26T11:11:42.177Z,11.59
2023-03-26T11:14:34.761Z,11.01
2023-03-26T11:17:43.513Z,11.34
2023-03-26T11:20:17.152Z,11.57
2023-03-26T11:23:02.701Z,11.32
2023-03-26T11:25:37.036Z,12.23
2023-03-26T11:28:09.370Z,12.40
2023-03-26T11:30:46.908Z,12.07
2023-03-26T11:33:20.787Z,11.70
2023-03-26T11:35:50.880Z,11.19
2023-03-26T11:38:32.836Z,11.28
2023-03-26T11:41:01.866Z,11.47
2023-03-26T11:43:34.275Z,11.21
2023-03-26T11:46:04.584Z,11.87
2023-03-26T11:48:36.987Z,12.13
2023-03-26T11:51:17.470Z,11.62
2023-03-26T11:53:46.764Z,11.45
2023-03-26T11:56:28.560Z,11.22
2023-03-26T11:59:01.037Z,11.66
2023-03-26T12:01:50.402Z,11.62
2023-03-26T12:04:27.807Z,12.71
2023-03-26T12:06:59.675Z,12.86
2023-03-26T12:09:26.635Z,12.23
2023-03-26T12:11:59.587Z,11.75
2023-03-26T12:14:28.313Z,12.18
2023-03-26T12:17:11.536Z,11.84
2023-03-26T12:19:40.680Z,12.01
2023-03-26T12:22:30.930Z,11.52
2023-03-26T12:25:16.789Z,11.66
2023-03-26T12:28:05.602Z,11.69
2023-03-26T12:30:36.996Z,11.16
2023-03-26T12:33:16.694Z,11.83
2023-03-26T12:35:43.588Z,11.74
2023-03-26T12:38:24.465Z,11.84
2023-03-26T12:44:44.553Z,11.62
2023-03-26T12:44:53.797Z,11.58
2023-03-26T12:47:57.366Z,11.60
2023-03-26T12:50:14.397Z,11.78
2023-03-26T12:53:19.083Z,10.90
2023-03-26T12:55:52.725Z,10.84
2023-03-26T12:58:41.041Z,10.59
2023-03-26T13:01:27.652Z,12.08
2023-03-26T13:04:21.574Z,12.70
2023-03-26T13:07:02.733Z,12.95
2023-03-26T13:09:59.146Z,12.92
2023-03-26T13:12:41.021Z,13.68
2023-03-26T13:15:16.610Z,14.13
2023-03-26T13:18:06.217Z,13.47
2023-03-26T13:21:08.134Z,12.76
2023-03-26T13:23:43.808Z,12.15
2023-03-26T13:26:19.753Z,11.94
2023-03-26T13:29:21.557Z,12.23
2023-03-26T13:31:56.801Z,12.83
2023-03-26T13:34:33.527Z,12.28
2023-03-26T13:37:14.217Z,11.51
2023-03-26T13:39:59.155Z,11.11
2023-03-26T13:42:40.128Z,11.73
2023-03-26T13:45:40.706Z,11.65
2023-03-26T13:48:14.415Z,11.32
2023-03-26T13:50:44.654Z,11.42
2023-03-26T13:53:29.200Z,10.70
2023-03-26T13:56:00.311Z,11.06
2023-03-26T13:58:43.028Z,11.10
2023-03-26T14:01:17.486Z,11.30
2023-03-26T14:04:06.136Z,11.39
2023-03-26T14:06:41.938Z,10.90
2023-03-26T14:09:24.503Z,11.23
2023-03-26T14:11:57.650Z,11.32
2023-03-26T14:14:48.986Z,10.81
2023-03-26T14:17:34.692Z,10.65
2023-03-26T14:20:34.784Z,10.64
2023-03-26T14:23:16.596Z,10.57
2023-03-26T14:26:26.457Z,10.47
2023-03-26T14:29:23.830Z,10.35
2023-03-26T14:32:02.278Z,10.45
2023-03-26T14:35:02.340Z,10.60
2023-03-26T14:37:53.674Z,10.30
2023-03-26T14:40:48.565Z,10.52
2023-03-26T14:43:39.691Z,10.12
2023-03-26T14:46:38.024Z,9.70
2023-03-26T14:49:09.801Z,10.15
2023-03-26T14:52:01.066Z,9.90
2023-03-26T14:54:31.567Z,10.07
2023-03-26T14:57:04.083Z,10.26
2023-03-26T14:59:57.981Z,11.14
2023-03-26T15:02:30.175Z,10.94
2023-03-26T15:05:28.381Z,11.18
2023-03-26T15:08:00.827Z,10.88
2023-03-26T15:10:49.533Z,10.48
2023-03-26T15:13:34.069Z,10.21
2023-03-26T15:16:37.922Z,10.08
2023-03-26T15:19:39.288Z,10.23
2023-03-26T15:22:36.021Z,10.05
2023-03-26T15:25:30.135Z,10.30
2023-03-26T15:28:34.034Z,10.83
2023-03-26T15:31:30.909Z,10.90
2023-03-26T15:34:09.976Z,10.49
2023-03-26T15:36:50.819Z,10.24
2023-03-26T15:39:44.349Z,10.05
2023-03-26T15:42:38.289Z,10.40
2023-03-26T15:45:20.016Z,11.21
2023-03-26T15:47:56.152Z,10.80
2023-03-26T15:50:44.446Z,11.11
2023-03-26T15:53:28.843Z,10.71
2023-03-26T15:56:21.998Z,10.38
2023-03-26T15:58:59.982Z,9.88
2023-03-26T16:01:35.479Z,9.96
2023-03-26T16:04:17.732Z,10.16
2023-03-26T16:07:09.417Z,9.98
2023-03-26T16:09:54.047Z,9.42
2023-03-26T16:12:28.972Z,9.18
2023-03-26T16:15:07.413Z,8.93
2023-03-26T16:18:19.184Z,8.95
2023-03-26T16:20:54.957Z,9.13
2023-03-26T16:23:27.253Z,9.31
2023-03-26T16:25:58.444Z,9.51
2023-03-26T16:28:29.029Z,9.40
2023-03-26T16:31:37.320Z,9.77
2023-03-26T16:34:05.715Z,10.04
2023-03-26T16:36:38.874Z,9.85
2023-03-26T16:39:05.493Z,9.26
2023-03-26T16:41:34.099Z,9.16
2023-03-26T16:44:10.678Z,8.76
2023-03-26T16:46:43.421Z,8.80
2023-03-26T16:49:23.088Z,9.00
2023-03-26T16:51:55.465Z,8.65
2023-03-26T16:54:41.723Z,8.50
2023-03-26T16:57:28.173Z,8.33
2023-03-26T17:00:06.699Z,8.38
2023-03-26T17:02:59.915Z,8.24
2023-03-26T17:05:56.326Z,8.14
2023-03-26T17:08:37.607Z,8.23
2023-03-26T17:11:22.643Z,8.08
2023-03-26T17:14:00.989Z,8.00
2023-03-26T17:16:33.254Z,7.81
2023-03-26T17:19:12.168Z,7.66
2023-03-26T17:21:55.516Z,7.50
2023-03-26T17:24:40.583Z,7.57
2023-03-26T17:27:36.252Z,7.53
2023-03-26T17:30:30.829Z,7.32
2023-03-26T17:33:03.538Z,7.27
2023-03-26T17:35:37.743Z,7.19
2023-03-26T17:38:10.022Z,7.41
2023-03-26T17:40:55.189Z,7.46
2023-03-26T17:43:45.468Z,7.16
2023-03-26T17:46:36.314Z,7.17
2023-03-26T17:49:11.713Z,7.07
2023-03-26T17:51:57.749Z,7.13
2023-03-26T17:54:31.315Z,7.12
2023-03-26T17:57:05.349Z,7.07
2023-03-26T17:59:32.705Z,6.94
2023-03-26T18:02:03.358Z,6.79
2023-03-26T18:04:35.694Z,6.73
2023-03-26T18:07:35.988Z,6.93
2023-03-26T18:10:12.816Z,6.86
2023-03-26T18:13:05.156Z,6.77
2023-03-26T18:15:45.040Z,6.81
2023-03-26T18:18:19.618Z,6.78
2023-03-26T18:20:49.128Z,6.71
2023-03-26T18:23:25.334Z,6.44
2023-03-26T18:26:08.824Z,6.58
2023-03-26T18:28:41.615Z,6.64
2023-03-26T18:31:28.316Z,6.67
2023-03-26T18:33:58.991Z,6.59
2023-03-26T18:36:30.481Z,6.70
2023-03-26T18:39:00.550Z,6.37
2023-03-26T18:41:41.714Z,6.41
2023-03-26T18:44:14.624Z,6.35
2023-03-26T18:46:41.611Z,6.40
2023-03-26T18:49:12.373Z,6.34
2023-03-26T18:51:50.062Z,6.55
2023-03-26T18:54:21.349Z,6.40
2023-03-26T18:56:48.775Z,6.34
2023-03-26T18:59:35.161Z,6.19
2023-03-26T19:02:13.677Z,6.51
2023-03-26T19:04:46.158Z,6.23
2023-03-26T19:07:16.501Z,6.10
2023-03-26T19:09:43.935Z,6.09
2023-03-26T19:12:20.220Z,6.26
2023-03-26T19:14:58.802Z,6.13
2023-03-26T19:17:29.714Z,6.14
2023-03-26T19:19:59.638Z,6.08
2023-03-26T19:22:27.060Z,6.08
2023-03-26T19:25:00.838Z,5.98
2023-03-26T19:27:27.637Z,5.91
2023-03-26T19:29:54.178Z,5.88
2023-03-26T19:32:28.462Z,5.94
2023-03-26T19:34:54.948Z,6.20
2023-03-26T19:37:26.776Z,5.85
2023-03-26T19:40:22.072Z,5.91
2023-03-26T19:42:50.582Z,6.02
2023-03-26T19:45:22.856Z,5.89
2023-03-26T19:47:56.890Z,5.82
2023-03-26T19:50:33.065Z,5.89
2023-03-26T19:53:17.099Z,6.11
2023-03-26T19:58:30.680Z,6.08
2023-03-26T20:00:57.404Z,5.99
2023-03-26T20:03:39.316Z,6.07
2023-03-26T20:06:07.298Z,5.99
2023-03-26T20:08:33.661Z,5.85
2023-03-26T20:11:00.206Z,5.99
2023-03-26T20:13:26.644Z,5.95
2023-03-26T20:16:18.203Z,5.91
2023-03-26T20:18:44.645Z,5.86
2023-03-26T20:21:12.533Z,5.92
2023-03-26T20:23:40.819Z,5.64
2023-03-26T20:26:12.246Z,5.82
2023-03-26T20:28:47.690Z,5.88
2023-03-26T20:31:19.242Z,5.62
2023-03-26T20:33:47.834Z,5.67
2023-03-26T20:36:14.722Z,5.75
2023-03-26T20:39:01.166Z,5.84
2023-03-26T20:41:27.808Z,5.78
2023-03-26T20:43:54.172Z,5.63
2023-03-26T20:46:31.207Z,5.79
2023-03-26T20:48:59.296Z,5.79
2023-03-26T20:51:28.169Z,5.90
2023-03-26T20:53:55.200Z,5.91
2023-03-26T20:56:21.795Z,5.99
2023-03-26T20:59:09.701Z,5.75
2023-03-26T21:01:37.899Z,5.90
2023-03-26T21:04:04.570Z,5.87
2023-03-26T21:06:31.055Z,5.88
2023-03-26T21:08:57.749Z,5.96
2023-03-26T21:11:52.969Z,5.92
2023-03-26T21:14:24.021Z,5.92
2023-03-26T21:16:50.713Z,5.93
2023-03-26T21:19:17.811Z,5.94
2023-03-26T21:22:14.931Z,5.91
2023-03-26T21:24:57.111Z,5.90
2023-03-26T21:27:29.038Z,6.10
2023-03-26T21:29:56.239Z,6.08
2023-03-26T21:32:23.314Z,6.02
2023-03-26T21:34:58.605Z,5.88
2023-03-26T21:37:27.012Z,5.89
2023-03-26T21:39:53.640Z,5.83
2023-03-26T21:42:20.431Z,5.49
2023-03-26T21:44:47.634Z,5.68
2023-03-26T21:47:14.788Z,5.57
2023-03-26T21:49:41.437Z,5.70
2023-03-26T21:52:13.529Z,5.38
2023-03-26T21:54:42.851Z,5.58
2023-03-26T21:57:24.312Z,5.50
2023-03-26T22:00:18.656Z,5.45
2023-03-26T22:03:07.250Z,5.24
2023-03-26T22:05:36.590Z,5.30
2023-03-26T22:08:05.418Z,5.35
2023-03-26T22:10:32.026Z,5.02
2023-03-26T22:12:59.528Z,5.27
2023-03-26T22:15:26.776Z,5.19
2023-03-26T22:17:56.119Z,5.19
2023-03-26T22:20:24.971Z,5.30
2023-03-26T22:22:53.057Z,5.19
2023-03-26T22:25:20.836Z,5.24
2023-03-26T22:27:48.297Z,4.98
2023-03-26T22:30:15.721Z,5.13
2023-03-26T22:32:43.418Z,5.33
2023-03-26T22:35:10.298Z,5.57
2023-03-26T22:37:37.752Z,5.57
2023-03-26T22:40:08.309Z,5.23
2023-03-26T22:42:36.160Z,4.98
2023-03-26T22:45:04.037Z,5.27
2023-03-26T22:47:33.541Z,5.19
2023-03-26T22:50:00.534Z,5.39
2023-03-26T22:52:27.243Z,5.24
2023-03-26T22:54:53.598Z,5.41
2023-03-26T22:57:21.555Z,5.27
2023-03-26T22:59:48.017Z,5.25
2023-03-26T23:02:16.451Z,5.16
2023-03-26T23:04:43.991Z,5.15
2023-03-26T23:07:10.810Z,4.96
2023-03-26T23:09:37.242Z,4.90
2023-03-26T23:12:04.559Z,4.61
2023-03-26T23:14:32.334Z,4.35
2023-03-26T23:16:58.998Z,4.57
2023-03-26T23:19:25.495Z,4.53
2023-03-26T23:21:52.315Z,4.50
2023-03-26T23:24:18.744Z,4.37
2023-03-26T23:26:50.813Z,4.26
2023-03-26T23:29:18.254Z,4.20
2023-03-26T23:31:44.767Z,4.02
2023-03-26T23:34:13.312Z,4.24
2023-03-26T23:36:40.769Z,4.27
2023-03-26T23:39:07.185Z,4.23
2023-03-26T23:41:34.032Z,4.32
2023-03-26T23:44:01.540Z,4.21
2023-03-26T23:46:34.562Z,4.28
2023-03-26T23:49:04.406Z,4.13
2023-03-26T23:51:31.914Z,4.18
2023-03-26T23:53:59.627Z,4.31
2023-03-26T23:56:27.564Z,4.14
2023-03-26T23:58:55.081Z,4.08
